Weather at Helicopter Services Heliport

Public forecast

Using degrees Fahrenheit for public forecast. Weather courtesy of forecast.io.

Closest aviation weather report (METAR) to Helicopter Services Heliport

Closest report is Quakertown Airport, 4.4 nm (8.2 km) S. Retrieved 2021/06/20 10:35 UTC (0 seconds ago):

KUKT 201035Z AUTO 00000KT 1 1/4SM BR BKN002 16/16 A2986 RMK A01

Closest aviation forecast (TAF) to Helicopter Services Heliport

Closest forecast is Lehigh Valley International Airport, 8.9 nm (16.5 km) NNW. Retrieved 2021/06/20 06:30 UTC (4 hours ago):

TAF KABE 200527Z 2006/2106 VRB03KT 5SM BR SCT060 SCT250 FM201400 24006KT P6SM SCT050 FM201800 23012KT P6SM BKN060 FM202200 20005KT P6SM VCTS BKN060CB FM210400 19005KT P6SM SCT070 BKN100 AMD NOT SKED